sensor_id;sensor_type;location;lat;lon;timestamp;P1;durP1;ratioP1;P2;durP2;ratioP2
24521;SDS011;12680;57.804;12.190;2023-02-12T00:01:59;17.63;;;4.30;;
24521;SDS011;12680;57.804;12.190;2023-02-12T00:04:25;15.95;;;3.92;;
24521;SDS011;12680;57.804;12.190;2023-02-12T00:06:52;21.75;;;4.95;;
24521;SDS011;12680;57.804;12.190;2023-02-12T00:09:19;20.75;;;4.38;;
24521;SDS011;12680;57.804;12.190;2023-02-12T00:11:46;23.40;;;4.63;;
24521;SDS011;12680;57.804;12.190;2023-02-12T00:14:12;30.38;;;5.55;;
24521;SDS011;12680;57.804;12.190;2023-02-12T00:16:39;21.35;;;4.32;;
24521;SDS011;12680;57.804;12.190;2023-02-12T00:19:06;26.80;;;4.88;;
24521;SDS011;12680;57.804;12.190;2023-02-12T00:21:32;26.85;;;5.00;;
24521;SDS011;12680;57.804;12.190;2023-02-12T00:24:01;19.52;;;4.65;;
24521;SDS011;12680;57.804;12.190;2023-02-12T00:26:28;15.02;;;3.63;;
24521;SDS011;12680;57.804;12.190;2023-02-12T00:28:54;20.05;;;4.85;;
24521;SDS011;12680;57.804;12.190;2023-02-12T00:31:22;26.08;;;4.03;;
24521;SDS011;12680;57.804;12.190;2023-02-12T00:33:51;18.77;;;4.53;;
24521;SDS011;12680;57.804;12.190;2023-02-12T00:36:20;21.65;;;4.82;;
24521;SDS011;12680;57.804;12.190;2023-02-12T00:38:49;16.10;;;3.50;;
24521;SDS011;12680;57.804;12.190;2023-02-12T00:41:17;21.13;;;4.28;;
24521;SDS011;12680;57.804;12.190;2023-02-12T00:43:44;22.80;;;4.63;;
24521;SDS011;12680;57.804;12.190;2023-02-12T00:46:12;23.50;;;4.93;;
24521;SDS011;12680;57.804;12.190;2023-02-12T00:48:39;19.02;;;4.38;;
24521;SDS011;12680;57.804;12.190;2023-02-12T00:51:06;21.92;;;5.05;;
24521;SDS011;12680;57.804;12.190;2023-02-12T00:53:33;25.05;;;4.50;;
24521;SDS011;12680;57.804;12.190;2023-02-12T00:56:00;22.15;;;4.47;;
24521;SDS011;12680;57.804;12.190;2023-02-12T00:58:27;22.05;;;4.90;;
24521;SDS011;12680;57.804;12.190;2023-02-12T01:00:54;22.67;;;4.40;;
24521;SDS011;12680;57.804;12.190;2023-02-12T01:03:21;38.13;;;5.47;;
24521;SDS011;12680;57.804;12.190;2023-02-12T01:05:48;27.15;;;5.43;;
24521;SDS011;12680;57.804;12.190;2023-02-12T01:08:15;26.05;;;4.00;;
24521;SDS011;12680;57.804;12.190;2023-02-12T01:10:42;28.42;;;5.60;;
24521;SDS011;12680;57.804;12.190;2023-02-12T01:13:13;31.35;;;4.72;;
24521;SDS011;12680;57.804;12.190;2023-02-12T01:15:40;26.00;;;5.22;;
24521;SDS011;12680;57.804;12.190;2023-02-12T01:18:07;41.05;;;5.72;;
24521;SDS011;12680;57.804;12.190;2023-02-12T01:20:34;40.30;;;5.93;;
24521;SDS011;12680;57.804;12.190;2023-02-12T01:23:01;33.92;;;5.20;;
24521;SDS011;12680;57.804;12.190;2023-02-12T01:25:28;37.08;;;4.90;;
24521;SDS011;12680;57.804;12.190;2023-02-12T01:27:55;25.13;;;5.25;;
24521;SDS011;12680;57.804;12.190;2023-02-12T01:30:21;39.53;;;4.97;;
24521;SDS011;12680;57.804;12.190;2023-02-12T01:32:49;27.02;;;4.57;;
24521;SDS011;12680;57.804;12.190;2023-02-12T01:35:16;47.88;;;5.90;;
24521;SDS011;12680;57.804;12.190;2023-02-12T01:37:42;69.10;;;5.95;;
24521;SDS011;12680;57.804;12.190;2023-02-12T01:40:10;44.97;;;4.43;;
24521;SDS011;12680;57.804;12.190;2023-02-12T01:42:40;37.08;;;5.75;;
24521;SDS011;12680;57.804;12.190;2023-02-12T01:47:41;49.75;;;5.65;;
24521;SDS011;12680;57.804;12.190;2023-02-12T01:50:16;42.92;;;5.22;;
24521;SDS011;12680;57.804;12.190;2023-02-12T01:52:46;55.17;;;5.13;;
24521;SDS011;12680;57.804;12.190;2023-02-12T01:55:16;28.45;;;5.53;;
24521;SDS011;12680;57.804;12.190;2023-02-12T01:57:46;53.42;;;6.45;;
24521;SDS011;12680;57.804;12.190;2023-02-12T02:00:15;33.35;;;5.20;;
24521;SDS011;12680;57.804;12.190;2023-02-12T02:02:47;42.38;;;6.13;;
24521;SDS011;12680;57.804;12.190;2023-02-12T02:05:23;39.17;;;4.95;;
24521;SDS011;12680;57.804;12.190;2023-02-12T02:08:15;40.92;;;5.80;;
24521;SDS011;12680;57.804;12.190;2023-02-12T02:10:41;32.45;;;4.57;;
24521;SDS011;12680;57.804;12.190;2023-02-12T02:13:08;39.22;;;6.22;;
24521;SDS011;12680;57.804;12.190;2023-02-12T02:15:55;34.15;;;5.63;;
24521;SDS011;12680;57.804;12.190;2023-02-12T02:21:14;47.15;;;4.93;;
24521;SDS011;12680;57.804;12.190;2023-02-12T02:32:20;27.63;;;5.05;;
24521;SDS011;12680;57.804;12.190;2023-02-12T02:34:54;63.85;;;5.60;;
24521;SDS011;12680;57.804;12.190;2023-02-12T02:37:34;48.25;;;5.05;;
24521;SDS011;12680;57.804;12.190;2023-02-12T02:40:12;64.43;;;5.90;;
24521;SDS011;12680;57.804;12.190;2023-02-12T02:42:54;26.13;;;5.82;;
24521;SDS011;12680;57.804;12.190;2023-02-12T02:46:03;32.22;;;6.20;;
24521;SDS011;12680;57.804;12.190;2023-02-12T02:48:34;34.83;;;5.35;;
24521;SDS011;12680;57.804;12.190;2023-02-12T02:51:09;40.47;;;6.75;;
24521;SDS011;12680;57.804;12.190;2023-02-12T02:53:57;28.80;;;5.65;;
24521;SDS011;12680;57.804;12.190;2023-02-12T02:56:33;28.25;;;6.72;;
24521;SDS011;12680;57.804;12.190;2023-02-12T02:59:04;24.20;;;4.80;;
24521;SDS011;12680;57.804;12.190;2023-02-12T03:01:39;49.95;;;6.45;;
24521;SDS011;12680;57.804;12.190;2023-02-12T03:04:17;33.70;;;5.32;;
24521;SDS011;12680;57.804;12.190;2023-02-12T03:07:02;37.90;;;5.93;;
24521;SDS011;12680;57.804;12.190;2023-02-12T03:09:40;37.65;;;6.55;;
24521;SDS011;12680;57.804;12.190;2023-02-12T03:12:15;32.80;;;6.18;;
24521;SDS011;12680;57.804;12.190;2023-02-12T03:14:47;30.85;;;6.03;;
24521;SDS011;12680;57.804;12.190;2023-02-12T03:17:21;35.90;;;5.75;;
24521;SDS011;12680;57.804;12.190;2023-02-12T03:19:57;37.17;;;5.43;;
24521;SDS011;12680;57.804;12.190;2023-02-12T03:22:30;36.60;;;6.30;;
24521;SDS011;12680;57.804;12.190;2023-02-12T03:25:03;37.72;;;5.82;;
24521;SDS011;12680;57.804;12.190;2023-02-12T03:27:49;52.13;;;5.75;;
24521;SDS011;12680;57.804;12.190;2023-02-12T03:39:14;43.72;;;5.75;;
24521;SDS011;12680;57.804;12.190;2023-02-12T03:41:54;39.80;;;7.07;;
24521;SDS011;12680;57.804;12.190;2023-02-12T03:44:44;39.97;;;6.18;;
24521;SDS011;12680;57.804;12.190;2023-02-12T03:52:41;25.77;;;5.00;;
24521;SDS011;12680;57.804;12.190;2023-02-12T03:55:08;41.20;;;5.43;;
24521;SDS011;12680;57.804;12.190;2023-02-12T03:57:39;22.05;;;3.80;;
24521;SDS011;12680;57.804;12.190;2023-02-12T04:00:16;28.52;;;4.82;;
24521;SDS011;12680;57.804;12.190;2023-02-12T04:02:49;26.08;;;4.63;;
24521;SDS011;12680;57.804;12.190;2023-02-12T04:05:17;41.83;;;5.07;;
24521;SDS011;12680;57.804;12.190;2023-02-12T04:07:47;32.70;;;5.23;;
24521;SDS011;12680;57.804;12.190;2023-02-12T04:10:15;31.65;;;4.80;;
24521;SDS011;12680;57.804;12.190;2023-02-12T04:12:50;31.98;;;4.45;;
24521;SDS011;12680;57.804;12.190;2023-02-12T04:15:32;14.70;;;4.00;;
24521;SDS011;12680;57.804;12.190;2023-02-12T04:18:18;27.63;;;5.07;;
24521;SDS011;12680;57.804;12.190;2023-02-12T04:26:36;28.33;;;5.13;;
24521;SDS011;12680;57.804;12.190;2023-02-12T04:31:53;31.83;;;4.70;;
24521;SDS011;12680;57.804;12.190;2023-02-12T04:34:38;25.50;;;6.30;;
24521;SDS011;12680;57.804;12.190;2023-02-12T04:37:21;21.50;;;4.85;;
24521;SDS011;12680;57.804;12.190;2023-02-12T04:39:53;26.15;;;4.85;;
24521;SDS011;12680;57.804;12.190;2023-02-12T04:42:21;24.98;;;4.10;;
24521;SDS011;12680;57.804;12.190;2023-02-12T04:44:48;33.10;;;4.82;;
24521;SDS011;12680;57.804;12.190;2023-02-12T04:47:15;31.38;;;4.80;;
24521;SDS011;12680;57.804;12.190;2023-02-12T04:49:42;23.55;;;4.80;;
24521;SDS011;12680;57.804;12.190;2023-02-12T04:52:09;25.23;;;4.28;;
24521;SDS011;12680;57.804;12.190;2023-02-12T04:54:36;22.35;;;4.65;;
24521;SDS011;12680;57.804;12.190;2023-02-12T04:57:03;26.20;;;4.88;;
24521;SDS011;12680;57.804;12.190;2023-02-12T04:59:30;26.65;;;4.95;;
24521;SDS011;12680;57.804;12.190;2023-02-12T05:01:56;23.75;;;4.15;;
24521;SDS011;12680;57.804;12.190;2023-02-12T05:04:23;21.67;;;4.22;;
24521;SDS011;12680;57.804;12.190;2023-02-12T05:06:50;17.45;;;4.10;;
24521;SDS011;12680;57.804;12.190;2023-02-12T05:09:17;26.25;;;4.70;;
24521;SDS011;12680;57.804;12.190;2023-02-12T05:11:45;22.65;;;4.25;;
24521;SDS011;12680;57.804;12.190;2023-02-12T05:14:12;14.15;;;4.05;;
24521;SDS011;12680;57.804;12.190;2023-02-12T05:16:39;15.77;;;3.25;;
24521;SDS011;12680;57.804;12.190;2023-02-12T05:19:06;18.33;;;4.00;;
24521;SDS011;12680;57.804;12.190;2023-02-12T05:21:35;19.90;;;4.05;;
24521;SDS011;12680;57.804;12.190;2023-02-12T05:24:03;29.02;;;4.65;;
24521;SDS011;12680;57.804;12.190;2023-02-12T05:26:30;35.00;;;4.85;;
24521;SDS011;12680;57.804;12.190;2023-02-12T05:28:57;18.58;;;4.25;;
24521;SDS011;12680;57.804;12.190;2023-02-12T05:31:23;29.10;;;4.20;;
24521;SDS011;12680;57.804;12.190;2023-02-12T05:33:51;22.67;;;3.80;;
24521;SDS011;12680;57.804;12.190;2023-02-12T05:36:19;22.02;;;3.55;;
24521;SDS011;12680;57.804;12.190;2023-02-12T05:38:48;23.30;;;3.40;;
24521;SDS011;12680;57.804;12.190;2023-02-12T05:41:16;13.63;;;2.97;;
24521;SDS011;12680;57.804;12.190;2023-02-12T05:43:48;14.05;;;3.67;;
24521;SDS011;12680;57.804;12.190;2023-02-12T05:46:16;16.20;;;3.33;;
24521;SDS011;12680;57.804;12.190;2023-02-12T05:48:44;16.45;;;2.80;;
24521;SDS011;12680;57.804;12.190;2023-02-12T05:51:13;20.70;;;3.47;;
24521;SDS011;12680;57.804;12.190;2023-02-12T05:53:42;16.77;;;3.60;;
24521;SDS011;12680;57.804;12.190;2023-02-12T05:58:41;14.20;;;3.30;;
24521;SDS011;12680;57.804;12.190;2023-02-12T06:01:14;12.07;;;3.13;;
24521;SDS011;12680;57.804;12.190;2023-02-12T06:04:01;21.85;;;3.53;;
24521;SDS011;12680;57.804;12.190;2023-02-12T06:06:31;18.85;;;3.28;;
24521;SDS011;12680;57.804;12.190;2023-02-12T06:08:58;15.45;;;3.60;;
24521;SDS011;12680;57.804;12.190;2023-02-12T06:11:26;13.25;;;3.30;;
24521;SDS011;12680;57.804;12.190;2023-02-12T06:13:53;16.33;;;3.72;;
24521;SDS011;12680;57.804;12.190;2023-02-12T06:16:21;16.73;;;3.15;;
24521;SDS011;12680;57.804;12.190;2023-02-12T06:18:50;23.17;;;3.63;;
24521;SDS011;12680;57.804;12.190;2023-02-12T06:21:19;18.55;;;3.42;;
24521;SDS011;12680;57.804;12.190;2023-02-12T06:23:47;18.08;;;3.30;;
24521;SDS011;12680;57.804;12.190;2023-02-12T06:26:14;24.05;;;3.15;;
24521;SDS011;12680;57.804;12.190;2023-02-12T06:28:42;25.33;;;3.30;;
24521;SDS011;12680;57.804;12.190;2023-02-12T06:31:19;14.88;;;3.45;;
24521;SDS011;12680;57.804;12.190;2023-02-12T06:33:51;23.13;;;4.05;;
24521;SDS011;12680;57.804;12.190;2023-02-12T06:36:19;27.65;;;3.67;;
24521;SDS011;12680;57.804;12.190;2023-02-12T06:38:47;24.67;;;3.67;;
24521;SDS011;12680;57.804;12.190;2023-02-12T06:41:14;19.38;;;4.00;;
24521;SDS011;12680;57.804;12.190;2023-02-12T06:43:42;24.60;;;4.82;;
24521;SDS011;12680;57.804;12.190;2023-02-12T06:46:09;17.48;;;3.33;;
24521;SDS011;12680;57.804;12.190;2023-02-12T06:48:36;16.90;;;3.22;;
24521;SDS011;12680;57.804;12.190;2023-02-12T06:51:04;20.67;;;3.55;;
24521;SDS011;12680;57.804;12.190;2023-02-12T06:53:32;26.42;;;3.72;;
24521;SDS011;12680;57.804;12.190;2023-02-12T06:56:01;23.38;;;4.43;;
24521;SDS011;12680;57.804;12.190;2023-02-12T06:58:28;18.38;;;3.22;;
24521;SDS011;12680;57.804;12.190;2023-02-12T07:00:55;27.92;;;4.63;;
24521;SDS011;12680;57.804;12.190;2023-02-12T07:03:22;20.75;;;3.65;;
24521;SDS011;12680;57.804;12.190;2023-02-12T07:05:49;28.90;;;3.85;;
24521;SDS011;12680;57.804;12.190;2023-02-12T07:08:15;29.92;;;3.58;;
24521;SDS011;12680;57.804;12.190;2023-02-12T07:10:46;26.80;;;4.40;;
24521;SDS011;12680;57.804;12.190;2023-02-12T07:13:14;23.73;;;3.75;;
24521;SDS011;12680;57.804;12.190;2023-02-12T07:15:41;34.50;;;4.25;;
24521;SDS011;12680;57.804;12.190;2023-02-12T07:18:08;37.97;;;4.25;;
24521;SDS011;12680;57.804;12.190;2023-02-12T07:20:34;19.55;;;3.25;;
24521;SDS011;12680;57.804;12.190;2023-02-12T07:23:01;25.73;;;3.92;;
24521;SDS011;12680;57.804;12.190;2023-02-12T07:25:28;39.50;;;4.57;;
24521;SDS011;12680;57.804;12.190;2023-02-12T07:27:54;33.67;;;4.47;;
24521;SDS011;12680;57.804;12.190;2023-02-12T07:30:21;27.10;;;4.63;;
24521;SDS011;12680;57.804;12.190;2023-02-12T07:32:48;21.60;;;3.25;;
24521;SDS011;12680;57.804;12.190;2023-02-12T07:35:15;31.60;;;4.30;;
24521;SDS011;12680;57.804;12.190;2023-02-12T07:37:41;25.50;;;3.85;;
24521;SDS011;12680;57.804;12.190;2023-02-12T07:40:08;22.13;;;3.63;;
24521;SDS011;12680;57.804;12.190;2023-02-12T07:42:35;26.00;;;3.92;;
24521;SDS011;12680;57.804;12.190;2023-02-12T07:45:02;29.38;;;4.55;;
24521;SDS011;12680;57.804;12.190;2023-02-12T07:47:29;21.77;;;4.35;;
24521;SDS011;12680;57.804;12.190;2023-02-12T07:49:56;30.38;;;3.65;;
24521;SDS011;12680;57.804;12.190;2023-02-12T07:52:22;37.03;;;4.15;;
24521;SDS011;12680;57.804;12.190;2023-02-12T07:54:49;33.45;;;5.40;;
24521;SDS011;12680;57.804;12.190;2023-02-12T07:57:16;15.75;;;2.97;;
24521;SDS011;12680;57.804;12.190;2023-02-12T07:59:42;32.85;;;4.00;;
24521;SDS011;12680;57.804;12.190;2023-02-12T08:02:09;30.80;;;3.42;;
24521;SDS011;12680;57.804;12.190;2023-02-12T08:04:36;32.22;;;4.68;;
24521;SDS011;12680;57.804;12.190;2023-02-12T08:07:03;34.85;;;3.92;;
24521;SDS011;12680;57.804;12.190;2023-02-12T08:09:29;28.30;;;4.63;;
24521;SDS011;12680;57.804;12.190;2023-02-12T08:11:56;32.00;;;3.92;;
24521;SDS011;12680;57.804;12.190;2023-02-12T08:14:25;27.60;;;3.53;;
24521;SDS011;12680;57.804;12.190;2023-02-12T08:16:52;35.22;;;4.05;;
24521;SDS011;12680;57.804;12.190;2023-02-12T08:19:19;22.50;;;3.47;;
24521;SDS011;12680;57.804;12.190;2023-02-12T08:21:51;30.83;;;4.75;;
24521;SDS011;12680;57.804;12.190;2023-02-12T08:24:19;24.17;;;4.05;;
24521;SDS011;12680;57.804;12.190;2023-02-12T08:26:47;33.50;;;4.32;;
24521;SDS011;12680;57.804;12.190;2023-02-12T08:29:16;22.65;;;3.75;;
24521;SDS011;12680;57.804;12.190;2023-02-12T08:31:45;27.75;;;3.67;;
24521;SDS011;12680;57.804;12.190;2023-02-12T08:34:17;41.15;;;5.15;;
24521;SDS011;12680;57.804;12.190;2023-02-12T08:36:46;27.67;;;3.78;;
24521;SDS011;12680;57.804;12.190;2023-02-12T08:39:15;26.33;;;3.70;;
24521;SDS011;12680;57.804;12.190;2023-02-12T08:41:43;22.70;;;3.17;;
24521;SDS011;12680;57.804;12.190;2023-02-12T08:44:10;45.13;;;5.32;;
24521;SDS011;12680;57.804;12.190;2023-02-12T08:46:38;17.75;;;3.65;;
24521;SDS011;12680;57.804;12.190;2023-02-12T08:49:10;28.15;;;3.85;;
24521;SDS011;12680;57.804;12.190;2023-02-12T08:51:40;25.98;;;3.17;;
24521;SDS011;12680;57.804;12.190;2023-02-12T08:54:11;26.80;;;3.30;;
24521;SDS011;12680;57.804;12.190;2023-02-12T08:56:39;23.90;;;3.40;;
24521;SDS011;12680;57.804;12.190;2023-02-12T08:59:06;28.25;;;4.10;;
24521;SDS011;12680;57.804;12.190;2023-02-12T09:01:34;26.27;;;3.55;;
24521;SDS011;12680;57.804;12.190;2023-02-12T09:04:13;23.65;;;3.90;;
24521;SDS011;12680;57.804;12.190;2023-02-12T09:06:43;28.92;;;3.10;;
24521;SDS011;12680;57.804;12.190;2023-02-12T09:09:11;34.75;;;4.50;;
24521;SDS011;12680;57.804;12.190;2023-02-12T09:11:38;28.73;;;3.83;;
24521;SDS011;12680;57.804;12.190;2023-02-12T09:14:05;25.23;;;3.25;;
24521;SDS011;12680;57.804;12.190;2023-02-12T09:16:34;24.10;;;3.45;;
24521;SDS011;12680;57.804;12.190;2023-02-12T09:19:02;26.45;;;3.78;;
24521;SDS011;12680;57.804;12.190;2023-02-12T09:21:29;20.60;;;3.22;;
24521;SDS011;12680;57.804;12.190;2023-02-12T09:23:56;28.63;;;3.40;;
24521;SDS011;12680;57.804;12.190;2023-02-12T09:26:23;30.25;;;4.50;;
24521;SDS011;12680;57.804;12.190;2023-02-12T09:28:51;21.38;;;3.20;;
24521;SDS011;12680;57.804;12.190;2023-02-12T09:31:26;29.73;;;4.45;;
24521;SDS011;12680;57.804;12.190;2023-02-12T09:33:56;31.83;;;4.22;;
24521;SDS011;12680;57.804;12.190;2023-02-12T09:36:24;29.67;;;4.00;;
24521;SDS011;12680;57.804;12.190;2023-02-12T09:38:52;26.70;;;3.45;;
24521;SDS011;12680;57.804;12.190;2023-02-12T09:46:49;28.40;;;3.42;;
24521;SDS011;12680;57.804;12.190;2023-02-12T09:52:11;23.30;;;2.97;;
24521;SDS011;12680;57.804;12.190;2023-02-12T09:54:43;25.70;;;3.10;;
24521;SDS011;12680;57.804;12.190;2023-02-12T09:57:16;24.70;;;4.50;;
24521;SDS011;12680;57.804;12.190;2023-02-12T09:59:48;25.15;;;3.38;;
24521;SDS011;12680;57.804;12.190;2023-02-12T10:02:19;26.50;;;3.45;;
24521;SDS011;12680;57.804;12.190;2023-02-12T10:04:48;23.10;;;3.08;;
24521;SDS011;12680;57.804;12.190;2023-02-12T10:12:59;21.15;;;3.45;;
24521;SDS011;12680;57.804;12.190;2023-02-12T10:15:43;12.77;;;2.63;;
24521;SDS011;12680;57.804;12.190;2023-02-12T10:18:41;18.73;;;2.88;;
24521;SDS011;12680;57.804;12.190;2023-02-12T10:26:34;26.90;;;3.47;;
24521;SDS011;12680;57.804;12.190;2023-02-12T10:29:24;27.77;;;3.15;;
24521;SDS011;12680;57.804;12.190;2023-02-12T10:32:03;21.90;;;2.92;;
24521;SDS011;12680;57.804;12.190;2023-02-12T10:34:57;24.70;;;3.47;;
24521;SDS011;12680;57.804;12.190;2023-02-12T10:40:16;16.02;;;3.10;;
24521;SDS011;12680;57.804;12.190;2023-02-12T10:42:55;19.30;;;2.80;;
24521;SDS011;12680;57.804;12.190;2023-02-12T10:45:24;22.98;;;2.42;;
24521;SDS011;12680;57.804;12.190;2023-02-12T10:48:02;13.10;;;2.38;;
24521;SDS011;12680;57.804;12.190;2023-02-12T10:58:42;13.52;;;2.47;;
24521;SDS011;12680;57.804;12.190;2023-02-12T11:01:18;16.00;;;2.83;;
24521;SDS011;12680;57.804;12.190;2023-02-12T11:03:52;19.67;;;2.97;;
24521;SDS011;12680;57.804;12.190;2023-02-12T11:06:23;21.98;;;2.38;;
24521;SDS011;12680;57.804;12.190;2023-02-12T11:08:55;18.27;;;2.13;;
24521;SDS011;12680;57.804;12.190;2023-02-12T11:11:23;14.90;;;2.67;;
24521;SDS011;12680;57.804;12.190;2023-02-12T11:13:55;21.48;;;2.95;;
24521;SDS011;12680;57.804;12.190;2023-02-12T11:16:32;16.63;;;2.17;;
24521;SDS011;12680;57.804;12.190;2023-02-12T11:19:03;24.63;;;2.92;;
24521;SDS011;12680;57.804;12.190;2023-02-12T11:21:45;13.43;;;2.35;;
24521;SDS011;12680;57.804;12.190;2023-02-12T11:24:27;11.35;;;2.10;;
24521;SDS011;12680;57.804;12.190;2023-02-12T11:27:10;18.67;;;2.35;;
24521;SDS011;12680;57.804;12.190;2023-02-12T11:29:37;10.48;;;2.25;;
24521;SDS011;12680;57.804;12.190;2023-02-12T11:32:05;11.70;;;2.28;;
24521;SDS011;12680;57.804;12.190;2023-02-12T11:34:34;18.08;;;2.25;;
24521;SDS011;12680;57.804;12.190;2023-02-12T11:37:01;13.10;;;2.33;;
24521;SDS011;12680;57.804;12.190;2023-02-12T11:39:31;18.08;;;2.13;;
24521;SDS011;12680;57.804;12.190;2023-02-12T11:42:14;14.63;;;1.60;;
24521;SDS011;12680;57.804;12.190;2023-02-12T11:44:47;16.55;;;2.03;;
24521;SDS011;12680;57.804;12.190;2023-02-12T11:47:20;8.63;;;1.63;;
24521;SDS011;12680;57.804;12.190;2023-02-12T11:52:34;12.18;;;2.97;;
24521;SDS011;12680;57.804;12.190;2023-02-12T11:55:04;11.38;;;2.03;;
24521;SDS011;12680;57.804;12.190;2023-02-12T11:57:44;10.40;;;2.07;;
24521;SDS011;12680;57.804;12.190;2023-02-12T12:00:15;6.30;;;1.30;;
24521;SDS011;12680;57.804;12.190;2023-02-12T12:03:19;14.38;;;2.55;;
24521;SDS011;12680;57.804;12.190;2023-02-12T12:05:48;9.95;;;1.50;;
24521;SDS011;12680;57.804;12.190;2023-02-12T12:08:20;12.20;;;2.15;;
24521;SDS011;12680;57.804;12.190;2023-02-12T12:11:03;12.60;;;2.33;;
24521;SDS011;12680;57.804;12.190;2023-02-12T12:13:40;8.80;;;2.05;;
24521;SDS011;12680;57.804;12.190;2023-02-12T12:16:30;8.10;;;1.90;;
24521;SDS011;12680;57.804;12.190;2023-02-12T12:19:21;11.88;;;2.53;;
24521;SDS011;12680;57.804;12.190;2023-02-12T12:25:11;8.65;;;1.70;;
24521;SDS011;12680;57.804;12.190;2023-02-12T12:27:53;8.50;;;1.17;;
24521;SDS011;12680;57.804;12.190;2023-02-12T12:33:55;9.48;;;1.60;;
24521;SDS011;12680;57.804;12.190;2023-02-12T12:38:42;7.22;;;1.27;;
24521;SDS011;12680;57.804;12.190;2023-02-12T13:00:48;13.55;;;2.10;;
24521;SDS011;12680;57.804;12.190;2023-02-12T13:05:55;11.88;;;2.72;;
24521;SDS011;12680;57.804;12.190;2023-02-12T13:09:09;9.02;;;1.80;;
24521;SDS011;12680;57.804;12.190;2023-02-12T13:14:46;8.52;;;2.13;;
24521;SDS011;12680;57.804;12.190;2023-02-12T13:17:41;8.40;;;2.00;;
24521;SDS011;12680;57.804;12.190;2023-02-12T13:20:18;7.15;;;1.45;;
24521;SDS011;12680;57.804;12.190;2023-02-12T13:22:58;6.18;;;1.63;;
24521;SDS011;12680;57.804;12.190;2023-02-12T13:25:38;11.23;;;2.00;;
24521;SDS011;12680;57.804;12.190;2023-02-12T13:28:32;7.22;;;1.30;;
24521;SDS011;12680;57.804;12.190;2023-02-12T13:30:59;8.32;;;1.77;;
24521;SDS011;12680;57.804;12.190;2023-02-12T13:33:42;11.25;;;1.88;;
24521;SDS011;12680;57.804;12.190;2023-02-12T13:36:12;4.43;;;1.95;;
24521;SDS011;12680;57.804;12.190;2023-02-12T13:38:45;9.52;;;1.35;;
24521;SDS011;12680;57.804;12.190;2023-02-12T13:41:17;7.07;;;1.40;;
24521;SDS011;12680;57.804;12.190;2023-02-12T13:54:33;10.23;;;1.70;;
24521;SDS011;12680;57.804;12.190;2023-02-12T13:57:19;8.82;;;1.60;;
24521;SDS011;12680;57.804;12.190;2023-02-12T13:59:47;7.78;;;1.42;;
24521;SDS011;12680;57.804;12.190;2023-02-12T14:05:13;7.55;;;1.77;;
24521;SDS011;12680;57.804;12.190;2023-02-12T14:10:26;8.75;;;1.00;;
24521;SDS011;12680;57.804;12.190;2023-02-12T14:13:17;10.77;;;1.67;;
24521;SDS011;12680;57.804;12.190;2023-02-12T14:15:53;11.80;;;2.20;;
24521;SDS011;12680;57.804;12.190;2023-02-12T14:18:35;12.05;;;2.17;;
24521;SDS011;12680;57.804;12.190;2023-02-12T14:23:39;10.32;;;2.20;;
24521;SDS011;12680;57.804;12.190;2023-02-12T14:26:09;6.22;;;1.85;;
24521;SDS011;12680;57.804;12.190;2023-02-12T14:31:37;8.25;;;1.40;;
24521;SDS011;12680;57.804;12.190;2023-02-12T14:39:07;11.48;;;2.10;;
24521;SDS011;12680;57.804;12.190;2023-02-12T14:44:54;14.02;;;1.90;;
24521;SDS011;12680;57.804;12.190;2023-02-12T14:49:55;10.32;;;1.55;;
24521;SDS011;12680;57.804;12.190;2023-02-12T14:52:28;13.48;;;2.10;;
24521;SDS011;12680;57.804;12.190;2023-02-12T14:54:58;9.50;;;1.77;;
24521;SDS011;12680;57.804;12.190;2023-02-12T14:57:35;7.82;;;1.67;;
24521;SDS011;12680;57.804;12.190;2023-02-12T15:02:53;13.65;;;1.90;;
24521;SDS011;12680;57.804;12.190;2023-02-12T15:08:02;13.18;;;1.88;;
24521;SDS011;12680;57.804;12.190;2023-02-12T15:10:34;9.00;;;1.80;;
24521;SDS011;12680;57.804;12.190;2023-02-12T15:13:18;9.82;;;2.17;;
24521;SDS011;12680;57.804;12.190;2023-02-12T15:15:58;13.80;;;1.88;;
24521;SDS011;12680;57.804;12.190;2023-02-12T15:21:19;12.80;;;2.42;;
24521;SDS011;12680;57.804;12.190;2023-02-12T15:23:58;16.08;;;2.03;;
24521;SDS011;12680;57.804;12.190;2023-02-12T15:26:31;7.28;;;1.73;;
24521;SDS011;12680;57.804;12.190;2023-02-12T15:29:06;18.33;;;2.50;;
24521;SDS011;12680;57.804;12.190;2023-02-12T15:31:55;10.48;;;2.00;;
24521;SDS011;12680;57.804;12.190;2023-02-12T15:34:29;19.95;;;2.28;;
24521;SDS011;12680;57.804;12.190;2023-02-12T15:36:58;16.80;;;1.98;;
24521;SDS011;12680;57.804;12.190;2023-02-12T15:39:27;13.32;;;1.80;;
24521;SDS011;12680;57.804;12.190;2023-02-12T15:42:04;15.55;;;2.28;;
24521;SDS011;12680;57.804;12.190;2023-02-12T15:44:49;15.98;;;2.20;;
24521;SDS011;12680;57.804;12.190;2023-02-12T15:47:16;14.88;;;2.35;;
24521;SDS011;12680;57.804;12.190;2023-02-12T15:49:49;14.13;;;2.03;;
24521;SDS011;12680;57.804;12.190;2023-02-12T15:52:26;18.15;;;2.40;;
24521;SDS011;12680;57.804;12.190;2023-02-12T15:55:00;13.70;;;2.22;;
24521;SDS011;12680;57.804;12.190;2023-02-12T15:57:30;11.38;;;1.75;;
24521;SDS011;12680;57.804;12.190;2023-02-12T16:00:05;12.93;;;2.30;;
24521;SDS011;12680;57.804;12.190;2023-02-12T16:02:50;16.23;;;2.63;;
24521;SDS011;12680;57.804;12.190;2023-02-12T16:05:18;10.40;;;2.00;;
24521;SDS011;12680;57.804;12.190;2023-02-12T16:07:46;17.65;;;2.42;;
24521;SDS011;12680;57.804;12.190;2023-02-12T16:10:17;14.07;;;2.33;;
24521;SDS011;12680;57.804;12.190;2023-02-12T16:12:46;11.23;;;2.05;;
24521;SDS011;12680;57.804;12.190;2023-02-12T16:15:25;15.60;;;2.15;;
24521;SDS011;12680;57.804;12.190;2023-02-12T16:17:57;9.45;;;1.67;;
24521;SDS011;12680;57.804;12.190;2023-02-12T16:20:26;20.20;;;2.80;;
24521;SDS011;12680;57.804;12.190;2023-02-12T16:22:54;13.55;;;2.72;;
24521;SDS011;12680;57.804;12.190;2023-02-12T16:25:28;25.20;;;3.20;;
24521;SDS011;12680;57.804;12.190;2023-02-12T16:28:01;16.73;;;2.70;;
24521;SDS011;12680;57.804;12.190;2023-02-12T16:33:01;16.63;;;2.90;;
24521;SDS011;12680;57.804;12.190;2023-02-12T16:35:29;22.30;;;2.78;;
24521;SDS011;12680;57.804;12.190;2023-02-12T16:41:15;20.27;;;2.95;;
24521;SDS011;12680;57.804;12.190;2023-02-12T16:43:46;12.98;;;2.53;;
24521;SDS011;12680;57.804;12.190;2023-02-12T16:46:15;16.02;;;2.75;;
24521;SDS011;12680;57.804;12.190;2023-02-12T16:48:44;17.73;;;2.47;;
24521;SDS011;12680;57.804;12.190;2023-02-12T16:51:22;23.65;;;3.17;;
24521;SDS011;12680;57.804;12.190;2023-02-12T16:53:55;14.60;;;2.65;;
24521;SDS011;12680;57.804;12.190;2023-02-12T16:56:24;18.80;;;3.25;;
24521;SDS011;12680;57.804;12.190;2023-02-12T16:58:55;16.63;;;4.03;;
24521;SDS011;12680;57.804;12.190;2023-02-12T17:01:27;15.18;;;2.90;;
24521;SDS011;12680;57.804;12.190;2023-02-12T17:03:56;18.02;;;2.80;;
24521;SDS011;12680;57.804;12.190;2023-02-12T17:06:26;24.10;;;3.30;;
24521;SDS011;12680;57.804;12.190;2023-02-12T17:08:54;14.40;;;3.40;;
24521;SDS011;12680;57.804;12.190;2023-02-12T17:11:21;20.08;;;3.75;;
24521;SDS011;12680;57.804;12.190;2023-02-12T17:13:50;24.20;;;3.10;;
24521;SDS011;12680;57.804;12.190;2023-02-12T17:16:18;15.32;;;3.13;;
24521;SDS011;12680;57.804;12.190;2023-02-12T17:18:55;21.20;;;3.38;;
24521;SDS011;12680;57.804;12.190;2023-02-12T17:21:29;24.00;;;3.90;;
24521;SDS011;12680;57.804;12.190;2023-02-12T17:24:03;25.37;;;3.50;;